Terminal Aerodrome Forecast
Issued by NWS

Current Version | Previous Version | Text Only | Print | Product List | Glossary On
Versions: 1 2 3 4 5 6 7 8 9 10 11 12 13 14 15 16 17 18 19 20 21 22 23 24 25 26 27 28 29 30 31 32 33 34 35
000
FTUS41 KBOX 152323
TAFBED
TAF
KBED 152323Z 1600/1624 00000KT P6SM FEW150
     FM161000 00000KT 2SM BR BKN130
     FM161300 VRB03KT P6SM OVC050
     FM161800 27007KT P6SM BKN035
     FM162200 29004KT P6SM SCT050=

USA.gov is the U.S. government's official web portal to all federal, state and local government web resources and services.